Time;durP1;ratioP1;P1;durP2;ratioP2;P2;SDS_P1;SDS_P2;PMS_P1;PMS_P2;Temp;Humidity;BMP_temperature;BMP_pressure;BME280_temperature;BME280_humidity;BME280_pressure;Samples;Min_cycle;Max_cycle;Signal;HPM_P1;HPM_P2
2021/01/08 00:01:57;;;;;;;;;;;;;;;;;;5056799;28;19921;-60
2021/01/08 00:04:23;;;;;;;;;;;;;;;;;;5056560;28;19923;-59
2021/01/08 00:06:49;;;;;;;;;;;;;;;;;;5056493;28;19966;-52
2021/01/08 00:09:15;;;;;;;;;;;;;;;;;;5056616;28;19924;-59
2021/01/08 00:11:41;;;;;;;;;;;;;;;;;;5056546;28;20399;-60
2021/01/08 00:14:07;;;;;;;;;;;;;;;;;;5056568;28;20047;-59
2021/01/08 00:16:33;;;;;;;;;;;;;;;;;;5056557;28;20377;-60
2021/01/08 00:18:59;;;;;;;;;;;;;;;;;;5056297;28;19924;-58
2021/01/08 00:21:25;;;;;;;;;;;;;;;;;;5056264;28;19924;-59
2021/01/08 00:23:51;;;;;;;;;;;;;;;;;;5056096;28;19948;-57
2021/01/08 00:26:17;;;;;;;;;;;;;;;;;;5056516;28;20398;-59
2021/01/08 00:28:43;;;;;;;;;;;;;;;;;;5055851;28;19961;-59
2021/01/08 00:31:09;;;;;;;;;;;;;;;;;;5056129;28;20037;-59
2021/01/08 00:33:35;;;;;;;;;;;;;;;;;;5055280;28;19917;-59
2021/01/08 00:36:01;;;;;;;;;;;;;;;;;;5056321;28;19937;-53
2021/01/08 00:38:27;;;;;;;;;;;;;;;;;;5055916;28;19929;-59
2021/01/08 00:40:53;;;;;;;;;;;;;;;;;;5056305;28;19972;-59
2021/01/08 00:43:19;;;;;;;;;;;;;;;;;;5055962;28;19909;-58
2021/01/08 00:45:45;;;;;;;;;;;;;;;;;;5055885;28;19925;-59
2021/01/08 00:48:11;;;;;;;;;;;;;;;;;;5055925;28;19920;-54
2021/01/08 00:50:37;;;;;;;;;;;;;;;;;;5055787;28;20288;-58
2021/01/08 00:53:03;;;;;;;;;;;;;;;;;;5055764;28;20093;-55
2021/01/08 00:55:29;;;;;;;;;;;;;;;;;;5055698;28;19925;-59
2021/01/08 00:57:55;;;;;;;;;;;;;;;;;;5055774;28;19928;-59
2021/01/08 01:00:21;;;;;;;;;;;;;;;;;;5055861;28;19954;-57
2021/01/08 01:02:47;;;;;;;;;;;;;;;;;;5055835;28;20067;-59
2021/01/08 01:05:13;;;;;;;;;;;;;;;;;;5055498;28;20355;-60
2021/01/08 01:07:39;;;;;;;;;;;;;;;;;;5055380;28;19926;-59
2021/01/08 01:10:05;;;;;;;;;;;;;;;;;;5055589;28;19929;-59
2021/01/08 01:12:31;;;;;;;;;;;;;;;;;;5055744;28;20357;-59
2021/01/08 01:14:57;;;;;;;;;;;;;;;;;;5055218;28;20292;-59
2021/01/08 01:17:23;;;;;;;;;;;;;;;;;;5055301;28;19973;-59
2021/01/08 01:19:49;;;;;;;;;;;;;;;;;;5055187;28;19925;-59
2021/01/08 01:22:15;;;;;;;;;;;;;;;;;;5055444;28;19927;-59
2021/01/08 01:24:41;;;;;;;;;;;;;;;;;;5054984;28;20320;-59
2021/01/08 01:27:07;;;;;;;;;;;;;;;;;;5054968;28;19924;-59
2021/01/08 01:29:33;;;;;;;;;;;;;;;;;;5055101;28;19928;-60
2021/01/08 01:31:59;;;;;;;;;;;;;;;;;;5055258;28;19924;-59
2021/01/08 01:34:25;;;;;;;;;;;;;;;;;;5055022;28;19924;-57
2021/01/08 01:36:51;;;;;;;;;;;;;;;;;;5055100;28;19960;-59
2021/01/08 01:39:17;;;;;;;;;;;;;;;;;;5054808;28;19921;-60
2021/01/08 01:41:43;;;;;;;;;;;;;;;;;;5055051;28;19998;-59
2021/01/08 01:44:09;;;;;;;;;;;;;;;;;;5054924;28;20398;-59
2021/01/08 01:46:35;;;;;;;;;;;;;;;;;;5054753;28;19926;-59
2021/01/08 01:49:01;;;;;;;;;;;;;;;;;;5054641;28;20361;-59
2021/01/08 01:51:27;;;;;;;;;;;;;;;;;;5054770;28;19928;-59
2021/01/08 01:53:53;;;;;;;;;;;;;;;;;;5054578;28;20289;-59
2021/01/08 01:56:19;;;;;;;;;;;;;;;;;;5054412;28;19955;-60
2021/01/08 01:58:45;;;;;;;;;;;;;;;;;;5054441;28;20012;-60
2021/01/08 02:01:11;;;;;;;;;;;;;;;;;;5054311;28;19921;-59
2021/01/08 02:03:37;;;;;;;;;;;;;;;;;;5054383;28;20281;-60
2021/01/08 02:06:03;;;;;;;;;;;;;;;;;;5054235;28;19928;-58
2021/01/08 02:08:29;;;;;;;;;;;;;;;;;;5054168;28;20391;-59
2021/01/08 02:10:55;;;;;;;;;;;;;;;;;;5054134;28;19915;-59
2021/01/08 02:13:21;;;;;;;;;;;;;;;;;;5054173;28;19967;-60
2021/01/08 02:15:47;;;;;;;;;;;;;;;;;;5054304;28;19923;-59
2021/01/08 02:18:12;;;;;;;;;;;;;;;;;;5054175;28;20387;-59
2021/01/08 02:20:38;;;;;;;;;;;;;;;;;;5054019;28;19969;-59
2021/01/08 02:23:04;;;;;;;;;;;;;;;;;;5054024;28;19995;-59
2021/01/08 02:25:30;;;;;;;;;;;;;;;;;;5054184;28;19929;-59
2021/01/08 02:27:56;;;;;;;;;;;;;;;;;;5053863;28;19994;-59
2021/01/08 02:30:22;;;;;;;;;;;;;;;;;;5053938;28;20021;-59
2021/01/08 02:32:48;;;;;;;;;;;;;;;;;;5054285;28;19929;-55
2021/01/08 02:35:14;;;;;;;;;;;;;;;;;;5054052;28;20407;-59
2021/01/08 02:37:40;;;;;;;;;;;;;;;;;;5053885;28;19943;-57
2021/01/08 02:40:06;;;;;;;;;;;;;;;;;;5054103;28;19909;-59
2021/01/08 02:42:32;;;;;;;;;;;;;;;;;;5053899;28;20367;-59
2021/01/08 02:44:58;;;;;;;;;;;;;;;;;;5054064;28;19935;-58
2021/01/08 02:47:24;;;;;;;;;;;;;;;;;;5053702;28;20400;-60
2021/01/08 02:49:50;;;;;;;;;;;;;;;;;;5053704;28;19966;-59
2021/01/08 02:52:16;;;;;;;;;;;;;;;;;;5053829;28;19925;-59
2021/01/08 02:54:42;;;;;;;;;;;;;;;;;;5053806;28;19945;-60
2021/01/08 02:57:09;;;;;;;;;;;;;;;;;;5053129;28;20265;-55
2021/01/08 02:59:35;;;;;;;;;;;;;;;;;;5053586;28;19930;-59
2021/01/08 03:02:01;;;;;;;;;;;;;;;;;;5053484;28;19928;-59
2021/01/08 03:04:27;;;;;;;;;;;;;;;;;;5053503;28;19946;-59
2021/01/08 03:06:53;;;;;;;;;;;;;;;;;;5053503;28;19991;-60
2021/01/08 03:09:19;;;;;;;;;;;;;;;;;;5053867;28;19948;-59
2021/01/08 03:11:45;;;;;;;;;;;;;;;;;;5053717;28;19923;-59
2021/01/08 03:14:11;;;;;;;;;;;;;;;;;;5053544;28;20387;-59
2021/01/08 03:16:37;;;;;;;;;;;;;;;;;;5053371;28;19908;-59
2021/01/08 03:19:03;;;;;;;;;;;;;;;;;;5053464;28;19929;-54
2021/01/08 03:21:32;;;;;;;;;;;;;;;;;;5053255;28;19931;-59
2021/01/08 03:23:58;;;;;;;;;;;;;;;;;;5053646;28;19956;-60
2021/01/08 03:26:24;;;;;;;;;;;;;;;;;;5053222;28;19927;-60
2021/01/08 03:28:50;;;;;;;;;;;;;;;;;;5053171;28;20093;-59
2021/01/08 03:31:16;;;;;;;;;;;;;;;;;;5053490;28;19974;-58
2021/01/08 03:33:42;;;;;;;;;;;;;;;;;;5053527;28;19917;-57
2021/01/08 03:36:08;;;;;;;;;;;;;;;;;;5053583;28;20266;-59
2021/01/08 03:38:34;;;;;;;;;;;;;;;;;;5053233;28;19909;-54
2021/01/08 03:41:00;;;;;;;;;;;;;;;;;;5053320;28;20020;-58
2021/01/08 03:43:26;;;;;;;;;;;;;;;;;;5053165;28;20448;-59
2021/01/08 03:45:52;;;;;;;;;;;;;;;;;;5053354;28;19924;-59
2021/01/08 03:48:18;;;;;;;;;;;;;;;;;;5053387;28;20023;-59
2021/01/08 03:50:44;;;;;;;;;;;;;;;;;;5053146;28;19909;-58
2021/01/08 03:53:10;;;;;;;;;;;;;;;;;;5052919;28;20029;-57
2021/01/08 03:55:36;;;;;;;;;;;;;;;;;;5053132;28;19923;-59
2021/01/08 03:58:02;;;;;;;;;;;;;;;;;;5053006;28;19927;-58
2021/01/08 04:00:28;;;;;;;;;;;;;;;;;;5053222;28;19971;-60
2021/01/08 04:02:54;;;;;;;;;;;;;;;;;;5052944;28;19948;-59
2021/01/08 04:05:20;;;;;;;;;;;;;;;;;;5052996;28;19949;-59
2021/01/08 04:07:46;;;;;;;;;;;;;;;;;;5053009;28;19944;-59
2021/01/08 04:10:12;;;;;;;;;;;;;;;;;;5055662;28;19909;-56
2021/01/08 04:12:38;;;;;;;;;;;;;;;;;;5056725;28;19970;-59
2021/01/08 04:15:03;;;;;;;;;;;;;;;;;;5056507;28;19949;-59
2021/01/08 04:17:29;;;;;;;;;;;;;;;;;;5056468;28;19913;-59
2021/01/08 04:19:55;;;;;;;;;;;;;;;;;;5056373;28;20027;-60
2021/01/08 04:22:21;;;;;;;;;;;;;;;;;;5056295;28;19908;-59
2021/01/08 04:24:47;;;;;;;;;;;;;;;;;;5056570;28;19940;-59
2021/01/08 04:27:13;;;;;;;;;;;;;;;;;;5056102;28;20603;-59
2021/01/08 04:29:39;;;;;;;;;;;;;;;;;;5056410;28;19923;-59
2021/01/08 04:32:05;;;;;;;;;;;;;;;;;;5054855;28;19988;-59
2021/01/08 04:34:31;;;;;;;;;;;;;;;;;;5056069;28;19917;-59
2021/01/08 04:36:57;;;;;;;;;;;;;;;;;;5056319;28;19988;-59
2021/01/08 04:39:23;;;;;;;;;;;;;;;;;;5056068;28;19926;-59
2021/01/08 04:41:49;;;;;;;;;;;;;;;;;;5056057;28;20372;-59
2021/01/08 04:44:15;;;;;;;;;;;;;;;;;;5055929;28;19923;-59
2021/01/08 04:46:41;;;;;;;;;;;;;;;;;;5056056;28;19922;-58
2021/01/08 04:49:07;;;;;;;;;;;;;;;;;;5055922;28;19960;-59
2021/01/08 04:51:33;;;;;;;;;;;;;;;;;;5055754;28;19925;-59
2021/01/08 04:53:59;;;;;;;;;;;;;;;;;;5055702;28;20011;-59
2021/01/08 04:56:25;;;;;;;;;;;;;;;;;;5055660;28;19940;-59
2021/01/08 04:58:51;;;;;;;;;;;;;;;;;;5055922;28;19931;-58
2021/01/08 05:01:17;;;;;;;;;;;;;;;;;;5055605;28;19920;-57
2021/01/08 05:03:43;;;;;;;;;;;;;;;;;;5055531;28;19919;-59
2021/01/08 05:06:09;;;;;;;;;;;;;;;;;;5055466;28;19930;-59
2021/01/08 05:08:35;;;;;;;;;;;;;;;;;;5055561;28;19947;-57
2021/01/08 05:11:01;;;;;;;;;;;;;;;;;;5055470;28;19950;-58
2021/01/08 05:13:27;;;;;;;;;;;;;;;;;;5054988;28;20432;-55
2021/01/08 05:15:53;;;;;;;;;;;;;;;;;;5055225;28;20032;-59
2021/01/08 05:18:20;;;;;;;;;;;;;;;;;;5041419;28;19955;-58
2021/01/08 05:20:46;;;;;;;;;;;;;;;;;;5032544;28;19923;-58
2021/01/08 05:23:12;;;;;;;;;;;;;;;;;;5033291;28;19994;-58
2021/01/08 05:25:38;;;;;;;;;;;;;;;;;;5035165;28;19970;-56
2021/01/08 05:28:04;;;;;;;;;;;;;;;;;;5034888;28;20373;-58
2021/01/08 05:30:30;;;;;;;;;;;;;;;;;;5035074;28;19927;-53
2021/01/08 05:32:56;;;;;;;;;;;;;;;;;;5033763;28;19927;-59
2021/01/08 05:35:22;;;;;;;;;;;;;;;;;;5034921;28;20408;-60
2021/01/08 05:37:48;;;;;;;;;;;;;;;;;;5035513;28;19916;-60
2021/01/08 05:40:14;;;;;;;;;;;;;;;;;;5034879;28;20352;-59
2021/01/08 05:42:40;;;;;;;;;;;;;;;;;;5035179;28;19998;-60
2021/01/08 05:45:06;;;;;;;;;;;;;;;;;;5034830;28;20014;-59
2021/01/08 05:47:32;;;;;;;;;;;;;;;;;;5034996;28;19932;-59
2021/01/08 05:49:58;;;;;;;;;;;;;;;;;;5034635;28;20001;-59
2021/01/08 05:52:24;;;;;;;;;;;;;;;;;;5034681;28;19924;-60
2021/01/08 05:54:50;;;;;;;;;;;;;;;;;;5034748;28;19949;-57
2021/01/08 05:57:16;;;;;;;;;;;;;;;;;;5034578;28;20393;-59
2021/01/08 05:59:42;;;;;;;;;;;;;;;;;;5034532;28;19928;-59
2021/01/08 06:02:08;;;;;;;;;;;;;;;;;;5034554;28;19961;-59
2021/01/08 06:04:34;;;;;;;;;;;;;;;;;;5034612;28;19970;-58
2021/01/08 06:06:59;;;;;;;;;;;;;;;;;;5034718;28;20437;-59
2021/01/08 06:09:25;;;;;;;;;;;;;;;;;;5034394;28;19981;-59
2021/01/08 06:11:51;;;;;;;;;;;;;;;;;;5034393;28;20002;-59
2021/01/08 06:14:17;;;;;;;;;;;;;;;;;;5034121;28;19948;-58
2021/01/08 06:16:43;;;;;;;;;;;;;;;;;;5034565;28;19948;-60
2021/01/08 06:19:09;;;;;;;;;;;;;;;;;;5034153;28;20416;-59
2021/01/08 06:21:35;;;;;;;;;;;;;;;;;;5034406;28;20011;-59
2021/01/08 06:24:01;;;;;;;;;;;;;;;;;;5034004;28;20349;-54
2021/01/08 06:26:27;;;;;;;;;;;;;;;;;;5034108;28;19965;-58
2021/01/08 06:28:53;;;;;;;;;;;;;;;;;;5033816;28;19959;-59
2021/01/08 06:31:19;;;;;;;;;;;;;;;;;;5033526;28;19934;-59
2021/01/08 06:33:45;;;;;;;;;;;;;;;;;;5033631;28;19940;-59
2021/01/08 06:36:11;;;;;;;;;;;;;;;;;;5033941;28;19927;-57
2021/01/08 06:38:37;;;;;;;;;;;;;;;;;;5033955;28;19973;-59
2021/01/08 06:41:03;;;;;;;;;;;;;;;;;;5033755;28;20016;-60
2021/01/08 06:43:29;;;;;;;;;;;;;;;;;;5034056;28;19923;-60
2021/01/08 06:45:55;;;;;;;;;;;;;;;;;;5034081;28;19926;-59
2021/01/08 06:48:21;;;;;;;;;;;;;;;;;;5033823;28;19960;-57
2021/01/08 06:50:47;;;;;;;;;;;;;;;;;;5033416;28;19909;-59
2021/01/08 06:53:13;;;;;;;;;;;;;;;;;;5033322;28;19920;-58
2021/01/08 06:55:39;;;;;;;;;;;;;;;;;;5033789;28;20380;-59
2021/01/08 06:58:05;;;;;;;;;;;;;;;;;;5033448;28;19924;-59
2021/01/08 07:00:31;;;;;;;;;;;;;;;;;;5033594;28;19924;-59
2021/01/08 07:02:57;;;;;;;;;;;;;;;;;;5033911;28;19925;-59
2021/01/08 07:05:23;;;;;;;;;;;;;;;;;;5033499;28;20442;-59
2021/01/08 07:07:49;;;;;;;;;;;;;;;;;;5033620;28;19909;-59
2021/01/08 07:10:15;;;;;;;;;;;;;;;;;;5033582;28;20282;-59
2021/01/08 07:12:41;;;;;;;;;;;;;;;;;;5033825;28;19949;-60
2021/01/08 07:15:07;;;;;;;;;;;;;;;;;;5033686;28;20008;-59
2021/01/08 07:17:33;;;;;;;;;;;;;;;;;;5033618;28;19999;-59
2021/01/08 07:19:59;;;;;;;;;;;;;;;;;;5033605;28;20277;-58
2021/01/08 07:22:24;;;;;;;;;;;;;;;;;;5033736;28;20016;-59
2021/01/08 07:24:50;;;;;;;;;;;;;;;;;;5033261;28;20259;-59
2021/01/08 07:27:16;;;;;;;;;;;;;;;;;;5033348;28;19961;-59
2021/01/08 07:29:42;;;;;;;;;;;;;;;;;;5033105;28;20415;-60
2021/01/08 07:32:08;;;;;;;;;;;;;;;;;;5033244;28;19947;-59
2021/01/08 07:34:34;;;;;;;;;;;;;;;;;;5033132;28;20303;-59
2021/01/08 07:37:00;;;;;;;;;;;;;;;;;;5033349;28;19922;-55
2021/01/08 07:39:26;;;;;;;;;;;;;;;;;;5033575;28;20298;-60
2021/01/08 07:41:52;;;;;;;;;;;;;;;;;;5033341;28;19925;-59
2021/01/08 07:44:18;;;;;;;;;;;;;;;;;;5035986;28;19950;-60
2021/01/08 07:46:44;;;;;;;;;;;;;;;;;;5037207;28;20005;-59
2021/01/08 07:49:10;;;;;;;;;;;;;;;;;;5037006;28;20014;-59
2021/01/08 07:51:36;;;;;;;;;;;;;;;;;;5036807;28;19925;-59
2021/01/08 07:54:02;;;;;;;;;;;;;;;;;;5036758;28;20047;-56
2021/01/08 07:56:28;;;;;;;;;;;;;;;;;;5036762;28;19983;-59
2021/01/08 07:58:54;;;;;;;;;;;;;;;;;;5049001;28;19929;-58
2021/01/08 08:01:20;;;;;;;;;;;;;;;;;;5056606;28;19940;-58
2021/01/08 08:03:46;;;;;;;;;;;;;;;;;;5057086;28;19955;-59
2021/01/08 08:06:12;;;;;;;;;;;;;;;;;;5056628;28;20283;-59
2021/01/08 08:08:38;;;;;;;;;;;;;;;;;;5056682;28;19919;-60
2021/01/08 08:11:04;;;;;;;;;;;;;;;;;;5056594;28;19944;-59
2021/01/08 08:13:30;;;;;;;;;;;;;;;;;;5056534;28;19931;-60
2021/01/08 08:15:56;;;;;;;;;;;;;;;;;;5056758;28;19932;-59
2021/01/08 08:18:22;;;;;;;;;;;;;;;;;;5056474;28;20318;-59
2021/01/08 08:20:48;;;;;;;;;;;;;;;;;;5056583;28;19929;-60
2021/01/08 08:23:17;;;;;;;;;;;;;;;;;;5056328;28;19936;-59
2021/01/08 08:25:42;;;;;;;;;;;;;;;;;;5056216;28;20298;-59
2021/01/08 08:28:08;;;;;;;;;;;;;;;;;;5056217;28;19967;-60
2021/01/08 08:30:34;;;;;;;;;;;;;;;;;;5056425;28;19947;-60
2021/01/08 08:33:00;;;;;;;;;;;;;;;;;;5055098;28;19917;-57
2021/01/08 08:35:26;;;;;;;;;;;;;;;;;;5055913;28;19986;-59
2021/01/08 08:37:52;;;;;;;;;;;;;;;;;;5055462;28;19946;-57
2021/01/08 08:40:18;;;;;;;;;;;;;;;;;;5056196;28;19968;-58
2021/01/08 08:42:44;;;;;;;;;;;;;;;;;;5056066;28;19952;-59
2021/01/08 08:45:10;;;;;;;;;;;;;;;;;;5055834;28;19913;-59
2021/01/08 08:47:36;;;;;;;;;;;;;;;;;;5055985;28;19920;-60
2021/01/08 08:50:02;;;;;;;;;;;;;;;;;;5055779;28;20050;-59
2021/01/08 08:52:28;;;;;;;;;;;;;;;;;;5056061;28;19909;-60
2021/01/08 08:54:54;;;;;;;;;;;;;;;;;;5054991;28;19943;-61
2021/01/08 08:57:20;;;;;;;;;;;;;;;;;;5055714;28;19934;-59
2021/01/08 08:59:46;;;;;;;;;;;;;;;;;;5055639;28;20057;-59
2021/01/08 09:02:12;;;;;;;;;;;;;;;;;;5055898;28;19932;-60
2021/01/08 09:04:38;;;;;;;;;;;;;;;;;;5046805;28;19919;-56
2021/01/08 09:07:04;;;;;;;;;;;;;;;;;;5035841;28;19992;-59
2021/01/08 09:09:30;;;;;;;;;;;;;;;;;;5035606;28;19931;-59
2021/01/08 09:11:56;;;;;;;;;;;;;;;;;;5035576;28;19928;-59
2021/01/08 09:14:22;;;;;;;;;;;;;;;;;;5035512;28;20430;-59
2021/01/08 09:16:48;;;;;;;;;;;;;;;;;;5035342;28;19922;-60
2021/01/08 09:19:16;;;;;;;;;;;;;;;;;;5035411;28;20039;-59
2021/01/08 09:21:42;;;;;;;;;;;;;;;;;;5037342;28;20425;-59
2021/01/08 09:24:08;;;;;;;;;;;;;;;;;;5035379;28;19964;-60
2021/01/08 09:26:35;;;;;;;;;;;;;;;;;;5035336;28;19926;-59
2021/01/08 09:29:01;;;;;;;;;;;;;;;;;;5034911;28;19962;-54
2021/01/08 09:31:27;;;;;;;;;;;;;;;;;;5038703;28;19924;-51
2021/01/08 09:33:53;;;;;;;;;;;;;;;;;;5048145;28;19992;-58
2021/01/08 09:36:19;;;;;;;;;;;;;;;;;;5052113;28;19940;-57
2021/01/08 09:38:45;;;;;;;;;;;;;;;;;;5044199;28;19915;-55
2021/01/08 09:41:11;;;;;;;;;;;;;;;;;;5045309;28;19921;-53
2021/01/08 09:43:37;;;;;;;;;;;;;;;;;;5045088;28;19985;-58
2021/01/08 09:46:03;;;;;;;;;;;;;;;;;;5042143;28;20351;-56
2021/01/08 09:48:29;;;;;;;;;;;;;;;;;;5044183;28;19925;-51
2021/01/08 09:50:55;;;;;;;;;;;;;;;;;;5045822;28;19923;-54
2021/01/08 09:53:21;;;;;;;;;;;;;;;;;;5050388;28;20338;-54
2021/01/08 09:55:47;;;;;;;;;;;;;;;;;;5053630;28;19930;-59
2021/01/08 09:58:13;;;;;;;;;;;;;;;;;;5054775;28;19923;-59
2021/01/08 10:00:39;;;;;;;;;;;;;;;;;;5054745;28;19916;-59
2021/01/08 10:03:05;;;;;;;;;;;;;;;;;;5054614;28;20288;-60
2021/01/08 10:05:31;;;;;;;;;;;;;;;;;;5054321;28;19912;-58
2021/01/08 10:07:57;;;;;;;;;;;;;;;;;;5054357;28;19923;-58
2021/01/08 10:10:23;;;;;;;;;;;;;;;;;;5054463;28;19930;-59
2021/01/08 10:12:49;;;;;;;;;;;;;;;;;;5050702;28;20442;-59
2021/01/08 10:15:15;;;;;;;;;;;;;;;;;;5034465;28;19965;-60
2021/01/08 10:17:41;;;;;;;;;;;;;;;;;;5034125;28;19933;-54
2021/01/08 10:20:07;;;;;;;;;;;;;;;;;;5034146;28;19925;-58
2021/01/08 10:22:33;;;;;;;;;;;;;;;;;;5033977;28;19927;-60
2021/01/08 10:24:59;;;;;;;;;;;;;;;;;;5034143;28;20361;-60
2021/01/08 10:27:25;;;;;;;;;;;;;;;;;;5033846;28;19960;-60
2021/01/08 10:29:51;;;;;;;;;;;;;;;;;;5033986;28;20406;-61
2021/01/08 10:32:17;;;;;;;;;;;;;;;;;;5034014;28;19921;-60
2021/01/08 10:34:43;;;;;;;;;;;;;;;;;;5047939;28;19949;-60
2021/01/08 10:37:10;;;;;;;;;;;;;;;;;;5051977;28;20506;-60
2021/01/08 10:39:36;;;;;;;;;;;;;;;;;;5050295;28;19913;-59
2021/01/08 10:42:02;;;;;;;;;;;;;;;;;;5053336;28;20009;-56
2021/01/08 10:44:28;;;;;;;;;;;;;;;;;;5053347;28;19932;-58
2021/01/08 10:46:54;;;;;;;;;;;;;;;;;;5051954;28;20392;-55
2021/01/08 10:49:22;;;;;;;;;;;;;;;;;;5053489;28;20031;-59
2021/01/08 10:51:48;;;;;;;;;;;;;;;;;;5053525;28;20001;-52
2021/01/08 10:54:17;;;;;;;;;;;;;;;;;;5052807;28;19951;-54
2021/01/08 10:56:43;;;;;;;;;;;;;;;;;;5053000;28;19924;-58
2021/01/08 10:59:11;;;;;;;;;;;;;;;;;;5053492;28;19918;-55
2021/01/08 11:01:39;;;;;;;;;;;;;;;;;;5053632;28;20029;-59
2021/01/08 11:04:04;;;;;;;;;;;;;;;;;;5053533;28;19923;-58
2021/01/08 11:06:30;;;;;;;;;;;;;;;;;;5053468;28;19945;-58
2021/01/08 11:08:56;;;;;;;;;;;;;;;;;;5053589;28;19925;-59
2021/01/08 11:11:22;;;;;;;;;;;;;;;;;;5053298;28;19946;-58
2021/01/08 11:13:48;;;;;;;;;;;;;;;;;;5053237;28;19949;-59
2021/01/08 11:16:14;;;;;;;;;;;;;;;;;;5052819;28;19953;-58
2021/01/08 11:18:41;;;;;;;;;;;;;;;;;;5038652;28;20018;-57
2021/01/08 11:21:07;;;;;;;;;;;;;;;;;;5050246;28;20451;-59
2021/01/08 11:23:33;;;;;;;;;;;;;;;;;;5052929;28;19943;-59
2021/01/08 11:25:59;;;;;;;;;;;;;;;;;;5047100;28;20382;-56
2021/01/08 11:28:25;;;;;;;;;;;;;;;;;;5045046;28;20329;-52
2021/01/08 11:30:51;;;;;;;;;;;;;;;;;;5044903;28;19971;-56
2021/01/08 11:33:17;;;;;;;;;;;;;;;;;;5049904;28;19932;-50
2021/01/08 11:35:42;;;;;;;;;;;;;;;;;;5049656;28;20316;-59
2021/01/08 11:38:08;;;;;;;;;;;;;;;;;;5045791;28;19969;-59
2021/01/08 11:40:34;;;;;;;;;;;;;;;;;;5048466;28;19919;-59
2021/01/08 11:43:00;;;;;;;;;;;;;;;;;;5048003;28;19954;-55
2021/01/08 11:45:26;;;;;;;;;;;;;;;;;;5046405;28;19930;-59
2021/01/08 11:47:52;;;;;;;;;;;;;;;;;;5045120;28;19924;-51
2021/01/08 11:50:18;;;;;;;;;;;;;;;;;;5049365;28;19983;-51
2021/01/08 11:52:44;;;;;;;;;;;;;;;;;;5045784;28;19927;-59
2021/01/08 11:55:10;;;;;;;;;;;;;;;;;;5041711;28;19956;-55
2021/01/08 11:57:36;;;;;;;;;;;;;;;;;;5047256;28;20037;-59
2021/01/08 12:00:02;;;;;;;;;;;;;;;;;;5044609;28;20388;-56
2021/01/08 12:02:29;;;;;;;;;;;;;;;;;;5038061;28;20006;-54
2021/01/08 12:04:55;;;;;;;;;;;;;;;;;;5036728;28;19925;-59
2021/01/08 12:07:21;;;;;;;;;;;;;;;;;;5036928;28;19963;-60
2021/01/08 12:09:47;;;;;;;;;;;;;;;;;;5036628;28;19956;-60
2021/01/08 12:12:13;;;;;;;;;;;;;;;;;;5036555;28;19925;-59
2021/01/08 12:14:39;;;;;;;;;;;;;;;;;;5036549;28;19951;-60
2021/01/08 12:17:05;;;;;;;;;;;;;;;;;;5036788;28;19950;-60
2021/01/08 12:19:31;;;;;;;;;;;;;;;;;;5036489;28;19922;-59
2021/01/08 12:21:57;;;;;;;;;;;;;;;;;;5036521;28;19935;-59
2021/01/08 12:24:23;;;;;;;;;;;;;;;;;;5036175;28;20441;-60
2021/01/08 12:26:49;;;;;;;;;;;;;;;;;;5036296;28;19909;-60
2021/01/08 12:29:14;;;;;;;;;;;;;;;;;;5035216;28;19968;-60
2021/01/08 12:31:40;;;;;;;;;;;;;;;;;;5036138;28;19929;-56
2021/01/08 12:34:06;;;;;;;;;;;;;;;;;;5036036;28;19953;-60
2021/01/08 12:36:32;;;;;;;;;;;;;;;;;;5036119;28;19999;-60
2021/01/08 12:38:58;;;;;;;;;;;;;;;;;;5035967;28;20370;-56
2021/01/08 12:41:24;;;;;;;;;;;;;;;;;;5050548;28;19951;-59
2021/01/08 12:43:50;;;;;;;;;;;;;;;;;;5041560;28;19926;-59
2021/01/08 12:46:16;;;;;;;;;;;;;;;;;;5041778;28;20427;-60
2021/01/08 12:48:42;;;;;;;;;;;;;;;;;;5036897;28;19953;-59
2021/01/08 12:51:08;;;;;;;;;;;;;;;;;;5035897;28;19927;-60
2021/01/08 12:53:34;;;;;;;;;;;;;;;;;;5035726;28;20350;-59
2021/01/08 12:56:00;;;;;;;;;;;;;;;;;;5035811;28;20071;-59
2021/01/08 12:58:26;;;;;;;;;;;;;;;;;;5046478;28;20407;-58
2021/01/08 13:00:52;;;;;;;;;;;;;;;;;;5046572;28;19971;-58
2021/01/08 13:03:18;;;;;;;;;;;;;;;;;;5044871;28;20027;-58
2021/01/08 13:05:44;;;;;;;;;;;;;;;;;;5046997;28;19924;-60
2021/01/08 13:08:10;;;;;;;;;;;;;;;;;;5050145;28;19958;-56
2021/01/08 13:10:36;;;;;;;;;;;;;;;;;;5047102;28;19966;-60
2021/01/08 13:13:02;;;;;;;;;;;;;;;;;;5046744;28;19927;-58
2021/01/08 13:15:28;;;;;;;;;;;;;;;;;;5043982;28;20356;-58
2021/01/08 13:17:54;;;;;;;;;;;;;;;;;;5055423;28;20006;-59
2021/01/08 13:20:20;;;;;;;;;;;;;;;;;;5055496;28;19913;-60
2021/01/08 13:22:46;;;;;;;;;;;;;;;;;;5055096;28;19912;-59
2021/01/08 13:25:12;;;;;;;;;;;;;;;;;;5055165;28;19927;-60
2021/01/08 13:27:38;;;;;;;;;;;;;;;;;;5054939;28;20324;-60
2021/01/08 13:30:04;;;;;;;;;;;;;;;;;;5055143;28;19924;-60
2021/01/08 13:32:30;;;;;;;;;;;;;;;;;;5051337;28;19951;-60
2021/01/08 13:34:56;;;;;;;;;;;;;;;;;;5037818;28;19943;-59
2021/01/08 13:37:22;;;;;;;;;;;;;;;;;;5035047;28;19998;-59
2021/01/08 13:39:48;;;;;;;;;;;;;;;;;;5035173;28;19927;-59
2021/01/08 13:42:14;;;;;;;;;;;;;;;;;;5034689;28;20421;-60
2021/01/08 13:44:40;;;;;;;;;;;;;;;;;;5035089;28;19929;-60
2021/01/08 13:47:07;;;;;;;;;;;;;;;;;;5034728;28;20332;-59
2021/01/08 13:49:33;;;;;;;;;;;;;;;;;;5035056;28;20024;-59
2021/01/08 13:51:59;;;;;;;;;;;;;;;;;;5034695;28;19973;-59
2021/01/08 13:54:25;;;;;;;;;;;;;;;;;;5034846;28;19996;-59
2021/01/08 13:56:51;;;;;;;;;;;;;;;;;;5034985;28;20339;-59
2021/01/08 13:59:17;;;;;;;;;;;;;;;;;;5034458;28;19919;-60
2021/01/08 14:01:43;;;;;;;;;;;;;;;;;;5051009;28;19950;-59
2021/01/08 14:04:09;;;;;;;;;;;;;;;;;;5054404;28;20006;-60
2021/01/08 14:06:35;;;;;;;;;;;;;;;;;;5054594;28;19962;-60
2021/01/08 14:09:02;;;;;;;;;;;;;;;;;;5054289;28;20291;-58
2021/01/08 14:11:28;;;;;;;;;;;;;;;;;;5054563;28;19971;-60
2021/01/08 14:13:54;;;;;;;;;;;;;;;;;;5053439;28;20422;-59
2021/01/08 14:16:20;;;;;;;;;;;;;;;;;;5053557;28;19941;-60
2021/01/08 14:18:46;;;;;;;;;;;;;;;;;;5054379;28;19932;-58
2021/01/08 14:21:12;;;;;;;;;;;;;;;;;;5053914;28;20284;-59
2021/01/08 14:23:38;;;;;;;;;;;;;;;;;;5053087;28;19944;-60
2021/01/08 14:26:04;;;;;;;;;;;;;;;;;;5053671;28;20439;-60
2021/01/08 14:28:30;;;;;;;;;;;;;;;;;;5046764;28;20045;-56
2021/01/08 14:30:56;;;;;;;;;;;;;;;;;;5047494;28;19969;-57
2021/01/08 14:33:22;;;;;;;;;;;;;;;;;;5045119;28;20500;-59
2021/01/08 14:35:48;;;;;;;;;;;;;;;;;;5045387;28;19949;-58
2021/01/08 14:38:14;;;;;;;;;;;;;;;;;;5048509;28;19925;-59
2021/01/08 14:40:40;;;;;;;;;;;;;;;;;;5051228;28;19929;-59
2021/01/08 14:43:06;;;;;;;;;;;;;;;;;;5049116;28;20363;-59
2021/01/08 14:45:32;;;;;;;;;;;;;;;;;;5050558;28;19923;-55
2021/01/08 14:47:57;;;;;;;;;;;;;;;;;;5053279;28;19929;-57
2021/01/08 14:50:23;;;;;;;;;;;;;;;;;;5048285;28;19933;-59
2021/01/08 14:52:49;;;;;;;;;;;;;;;;;;5043915;28;19909;-60
2021/01/08 14:55:15;;;;;;;;;;;;;;;;;;5045109;28;20007;-59
2021/01/08 14:57:41;;;;;;;;;;;;;;;;;;5044395;28;19934;-59
2021/01/08 15:00:07;;;;;;;;;;;;;;;;;;5038425;28;19960;-59
2021/01/08 15:02:33;;;;;;;;;;;;;;;;;;5053507;28;20372;-59
2021/01/08 15:04:59;;;;;;;;;;;;;;;;;;5053430;28;19932;-60
2021/01/08 15:07:25;;;;;;;;;;;;;;;;;;5053778;28;19909;-60
2021/01/08 15:09:51;;;;;;;;;;;;;;;;;;5053768;28;19989;-60
2021/01/08 15:12:17;;;;;;;;;;;;;;;;;;5053689;28;20293;-59
2021/01/08 15:14:43;;;;;;;;;;;;;;;;;;5053276;28;19956;-53
2021/01/08 15:17:09;;;;;;;;;;;;;;;;;;5052368;28;19950;-59
2021/01/08 15:19:35;;;;;;;;;;;;;;;;;;5052081;28;20319;-60
2021/01/08 15:22:01;;;;;;;;;;;;;;;;;;5053088;28;19929;-59
2021/01/08 15:24:27;;;;;;;;;;;;;;;;;;5053270;28;19941;-60
2021/01/08 15:26:53;;;;;;;;;;;;;;;;;;5048537;28;20011;-59
2021/01/08 15:29:19;;;;;;;;;;;;;;;;;;5037897;28;19957;-60
2021/01/08 15:31:45;;;;;;;;;;;;;;;;;;5032790;28;19916;-60
2021/01/08 15:34:11;;;;;;;;;;;;;;;;;;5032201;28;20325;-59
2021/01/08 15:36:37;;;;;;;;;;;;;;;;;;5033444;28;20007;-60
2021/01/08 15:39:03;;;;;;;;;;;;;;;;;;5033171;28;19949;-60
2021/01/08 15:41:29;;;;;;;;;;;;;;;;;;5033557;28;20039;-60
2021/01/08 15:43:55;;;;;;;;;;;;;;;;;;5033262;28;19929;-60
2021/01/08 15:46:21;;;;;;;;;;;;;;;;;;5033311;28;19928;-59
2021/01/08 15:48:48;;;;;;;;;;;;;;;;;;5033209;28;19913;-59
2021/01/08 15:51:14;;;;;;;;;;;;;;;;;;5033002;28;19923;-59
2021/01/08 15:53:39;;;;;;;;;;;;;;;;;;5039033;28;20144;-60
2021/01/08 15:56:05;;;;;;;;;;;;;;;;;;5052745;28;19933;-60
2021/01/08 15:58:31;;;;;;;;;;;;;;;;;;5053328;28;19913;-60
2021/01/08 16:00:58;;;;;;;;;;;;;;;;;;5053015;28;19920;-60
2021/01/08 16:03:23;;;;;;;;;;;;;;;;;;5052954;28;20338;-60
2021/01/08 16:05:49;;;;;;;;;;;;;;;;;;5056719;28;20001;-59
2021/01/08 16:08:15;;;;;;;;;;;;;;;;;;5056676;28;19929;-59
2021/01/08 16:10:41;;;;;;;;;;;;;;;;;;5056493;28;19927;-60
2021/01/08 16:13:07;;;;;;;;;;;;;;;;;;5056508;28;19967;-60
2021/01/08 16:15:33;;;;;;;;;;;;;;;;;;5056565;28;20001;-59
2021/01/08 16:17:59;;;;;;;;;;;;;;;;;;5056391;28;19967;-59
2021/01/08 16:20:25;;;;;;;;;;;;;;;;;;5056071;28;19983;-60
2021/01/08 16:22:51;;;;;;;;;;;;;;;;;;5056404;28;20039;-59
2021/01/08 16:25:17;;;;;;;;;;;;;;;;;;5056053;28;19922;-59
2021/01/08 16:27:43;;;;;;;;;;;;;;;;;;5056409;28;19960;-60
2021/01/08 16:30:09;;;;;;;;;;;;;;;;;;5056344;28;20254;-60
2021/01/08 16:32:35;;;;;;;;;;;;;;;;;;5056123;28;19927;-60
2021/01/08 16:35:02;;;;;;;;;;;;;;;;;;5056137;28;20040;-60
2021/01/08 16:37:28;;;;;;;;;;;;;;;;;;5056259;28;19921;-60